Pelican Narrows, Canada
Current Conditions -  °F | °C
As of 9:00 AM on Wednesday 22 Oct 2014 (Local Time) from CYVC Reporting Station
Broken Clouds Broken Clouds  
Wind Chill: 45°   Ceiling: 25000
Heat Index: 45°   Visibility: 15mi
Dew Point: 43°   Wind: 2mph
Humidity: 93%   Direction: NA
Pressure: 29.68"   Gusts: NA
Location:  55.17°N, 102.95°W
Report Text: CYVC 221500Z VRB02KT 15SM SCT100 BKN250 07/06 A2968 RMK AC3CI4 SLP064
Loading
Personal Weather Stations






























Interactive Weather Map
Tropical Storm Tracking
New forecast layout! Learn more

10-Day Weather Forecast

Advertisements
Track Severe Weather on mobile